sensor_id;sensor_type;location;lat;lon;timestamp;pressure;altitude;pressure_sealevel;temperature;humidity
46111;BME280;31849;55.992;37.252;2023-03-22T00:01:16;98494.19;;;6.10;63.95
46111;BME280;31849;55.992;37.252;2023-03-22T00:06:21;98491.63;;;6.05;63.40
46111;BME280;31849;55.992;37.252;2023-03-22T00:11:27;98499.34;;;6.14;63.69
46111;BME280;31849;55.992;37.252;2023-03-22T00:16:30;98507.09;;;6.14;63.79
46111;BME280;31849;55.992;37.252;2023-03-22T00:21:33;98503.66;;;6.09;63.43
46111;BME280;31849;55.992;37.252;2023-03-22T00:26:39;98501.97;;;6.22;64.16
46111;BME280;31849;55.992;37.252;2023-03-22T00:31:42;98503.66;;;6.26;65.38
46111;BME280;31849;55.992;37.252;2023-03-22T00:36:45;98505.38;;;6.32;62.77
46111;BME280;31849;55.992;37.252;2023-03-22T00:41:50;98514.00;;;6.34;63.36
46111;BME280;31849;55.992;37.252;2023-03-22T00:46:54;98523.44;;;6.30;63.27
46111;BME280;31849;55.992;37.252;2023-03-22T00:51:57;98520.03;;;6.18;62.83
46111;BME280;31849;55.992;37.252;2023-03-22T00:57:02;98524.31;;;6.20;63.92
46111;BME280;31849;55.992;37.252;2023-03-22T01:02:05;98532.91;;;6.33;62.60
46111;BME280;31849;55.992;37.252;2023-03-22T01:07:09;98538.09;;;6.33;62.93
46111;BME280;31849;55.992;37.252;2023-03-22T01:12:14;98534.66;;;6.31;62.57
46111;BME280;31849;55.992;37.252;2023-03-22T01:17:17;98544.97;;;6.26;63.38
46111;BME280;31849;55.992;37.252;2023-03-22T01:22:21;98548.38;;;6.14;64.15
46111;BME280;31849;55.992;37.252;2023-03-22T01:27:26;98556.16;;;6.21;64.24
46111;BME280;31849;55.992;37.252;2023-03-22T01:32:29;98561.31;;;6.18;63.82
46111;BME280;31849;55.992;37.252;2023-03-22T01:37:33;98567.34;;;6.24;63.75
46111;BME280;31849;55.992;37.252;2023-03-22T01:42:38;98575.94;;;6.28;63.22
46111;BME280;31849;55.992;37.252;2023-03-22T01:47:42;98578.50;;;6.28;63.35
46111;BME280;31849;55.992;37.252;2023-03-22T01:52:47;98581.09;;;6.14;63.08
46111;BME280;31849;55.992;37.252;2023-03-22T01:57:53;98592.31;;;6.25;62.86
46111;BME280;31849;55.992;37.252;2023-03-22T02:02:57;98592.31;;;6.27;62.84
46111;BME280;31849;55.992;37.252;2023-03-22T02:08:01;98597.47;;;6.21;62.15
46111;BME280;31849;55.992;37.252;2023-03-22T02:13:25;98600.03;;;6.25;63.16
46111;BME280;31849;55.992;37.252;2023-03-22T02:18:45;98617.25;;;6.28;62.09
46111;BME280;31849;55.992;37.252;2023-03-22T02:24:17;98617.28;;;6.31;62.61
46111;BME280;31849;55.992;37.252;2023-03-22T02:29:37;98638.78;;;6.31;62.46
46111;BME280;31849;55.992;37.252;2023-03-22T02:35:16;98643.94;;;6.25;62.09
46111;BME280;31849;55.992;37.252;2023-03-22T02:40:28;98647.34;;;6.04;61.80
46111;BME280;31849;55.992;37.252;2023-03-22T02:45:37;98652.41;;;5.93;62.49
46111;BME280;31849;55.992;37.252;2023-03-22T02:50:50;98658.44;;;5.92;61.64
46111;BME280;31849;55.992;37.252;2023-03-22T02:55:58;98660.09;;;5.78;61.67
46111;BME280;31849;55.992;37.252;2023-03-22T03:01:07;98671.28;;;5.78;61.86
46111;BME280;31849;55.992;37.252;2023-03-22T03:06:14;98682.41;;;5.68;61.77
46111;BME280;31849;55.992;37.252;2023-03-22T03:11:20;98679.75;;;5.48;61.85
46111;BME280;31849;55.992;37.252;2023-03-22T03:16:25;98689.16;;;5.44;61.07
46111;BME280;31849;55.992;37.252;2023-03-22T03:21:35;98702.00;;;5.37;61.95
46111;BME280;31849;55.992;37.252;2023-03-22T03:26:52;98707.91;;;5.19;62.33
46111;BME280;31849;55.992;37.252;2023-03-22T03:32:03;98714.69;;;5.09;61.21
46111;BME280;31849;55.992;37.252;2023-03-22T03:37:14;98713.75;;;4.98;61.43
46111;BME280;31849;55.992;37.252;2023-03-22T03:42:22;98731.81;;;5.01;60.82
46111;BME280;31849;55.992;37.252;2023-03-22T03:47:29;98736.06;;;4.96;61.43
46111;BME280;31849;55.992;37.252;2023-03-22T03:52:33;98739.41;;;4.87;61.37
46111;BME280;31849;55.992;37.252;2023-03-22T03:57:38;98748.00;;;4.84;61.87
46111;BME280;31849;55.992;37.252;2023-03-22T04:02:42;98752.38;;;4.93;61.24
46111;BME280;31849;55.992;37.252;2023-03-22T04:07:45;98762.53;;;4.81;61.16
46111;BME280;31849;55.992;37.252;2023-03-22T04:12:50;98766.00;;;4.80;61.30
46111;BME280;31849;55.992;37.252;2023-03-22T04:17:53;98776.28;;;4.77;60.50
46111;BME280;31849;55.992;37.252;2023-03-22T04:22:57;98777.91;;;4.71;60.76
46111;BME280;31849;55.992;37.252;2023-03-22T04:28:02;98785.66;;;4.73;59.85
46111;BME280;31849;55.992;37.252;2023-03-22T04:33:06;98778.66;;;4.61;60.52
46111;BME280;31849;55.992;37.252;2023-03-22T04:38:10;98781.25;;;4.61;59.73
46111;BME280;31849;55.992;37.252;2023-03-22T04:43:14;98796.94;;;4.86;59.11
46111;BME280;31849;55.992;37.252;2023-03-22T04:48:19;98801.69;;;5.33;57.98
46111;BME280;31849;55.992;37.252;2023-03-22T04:53:23;98804.28;;;5.38;57.37
46111;BME280;31849;55.992;37.252;2023-03-22T04:58:29;98806.94;;;5.47;57.50
46111;BME280;31849;55.992;37.252;2023-03-22T05:03:33;98822.28;;;5.30;57.63
46111;BME280;31849;55.992;37.252;2023-03-22T05:08:37;98822.25;;;5.27;57.31
46111;BME280;31849;55.992;37.252;2023-03-22T05:13:42;98820.34;;;5.10;56.91
46111;BME280;31849;55.992;37.252;2023-03-22T05:18:46;98843.47;;;5.03;56.88
46111;BME280;31849;55.992;37.252;2023-03-22T05:23:50;98854.59;;;5.00;56.58
46111;BME280;31849;55.992;37.252;2023-03-22T05:28:55;98854.75;;;5.11;56.45
46111;BME280;31849;55.992;37.252;2023-03-22T05:33:59;98859.94;;;5.16;56.15
46111;BME280;31849;55.992;37.252;2023-03-22T05:39:03;98875.44;;;5.19;56.61
46111;BME280;31849;55.992;37.252;2023-03-22T05:44:08;98880.66;;;5.28;56.63
46111;BME280;31849;55.992;37.252;2023-03-22T05:49:11;98876.47;;;5.36;55.72
46111;BME280;31849;55.992;37.252;2023-03-22T05:54:15;98860.13;;;5.37;54.52
46111;BME280;31849;55.992;37.252;2023-03-22T05:59:20;98861.28;;;5.70;54.42
46111;BME280;31849;55.992;37.252;2023-03-22T06:04:23;98873.59;;;6.14;52.86
46111;BME280;31849;55.992;37.252;2023-03-22T06:09:26;98876.50;;;6.76;51.35
46111;BME280;31849;55.992;37.252;2023-03-22T06:14:32;98875.78;;;7.74;49.08
46111;BME280;31849;55.992;37.252;2023-03-22T06:19:35;98877.41;;;8.42;47.02
46111;BME280;31849;55.992;37.252;2023-03-22T06:24:38;98872.06;;;11.46;41.71
46111;BME280;31849;55.992;37.252;2023-03-22T06:29:44;98867.25;;;19.42;30.23
46111;BME280;31849;55.992;37.252;2023-03-22T06:34:52;98877.00;;;23.38;24.32
46111;BME280;31849;55.992;37.252;2023-03-22T06:39:55;98866.00;;;21.84;25.52
46111;BME280;31849;55.992;37.252;2023-03-22T06:45:00;98876.72;;;19.83;27.08
46111;BME280;31849;55.992;37.252;2023-03-22T06:50:04;98882.53;;;21.25;24.85
46111;BME280;31849;55.992;37.252;2023-03-22T06:55:08;98891.69;;;18.49;27.72
46111;BME280;31849;55.992;37.252;2023-03-22T07:00:15;98890.06;;;16.44;29.57
46111;BME280;31849;55.992;37.252;2023-03-22T07:05:19;98899.25;;;18.57;26.90
46111;BME280;31849;55.992;37.252;2023-03-22T07:10:23;98885.31;;;22.30;23.50
46111;BME280;31849;55.992;37.252;2023-03-22T07:15:28;98887.19;;;22.14;23.06
46111;BME280;31849;55.992;37.252;2023-03-22T07:20:33;98903.28;;;24.22;20.73
46111;BME280;31849;55.992;37.252;2023-03-22T07:25:39;98906.53;;;27.29;18.22
46111;BME280;31849;55.992;37.252;2023-03-22T07:30:44;98903.41;;;27.79;17.98
46111;BME280;31849;55.992;37.252;2023-03-22T07:35:48;98911.56;;;25.58;19.06
46111;BME280;31849;55.992;37.252;2023-03-22T07:40:52;98917.78;;;23.77;20.36
46111;BME280;31849;55.992;37.252;2023-03-22T07:45:57;98912.00;;;25.15;18.84
46111;BME280;31849;55.992;37.252;2023-03-22T07:51:01;98893.66;;;25.73;18.40
46111;BME280;31849;55.992;37.252;2023-03-22T07:56:05;98920.03;;;21.32;22.09
46111;BME280;31849;55.992;37.252;2023-03-22T08:01:12;98920.63;;;18.28;24.37
46111;BME280;31849;55.992;37.252;2023-03-22T08:06:16;98934.81;;;23.60;20.20
46111;BME280;31849;55.992;37.252;2023-03-22T08:11:20;98927.28;;;27.48;19.15
46111;BME280;31849;55.992;37.252;2023-03-22T08:16:24;98926.16;;;30.01;14.71
46111;BME280;31849;55.992;37.252;2023-03-22T08:21:28;98922.69;;;28.78;15.46
46111;BME280;31849;55.992;37.252;2023-03-22T08:26:31;98928.69;;;30.12;14.30
46111;BME280;31849;55.992;37.252;2023-03-22T08:31:37;98936.53;;;28.84;14.80
46111;BME280;31849;55.992;37.252;2023-03-22T08:36:40;98924.88;;;27.11;15.74
46111;BME280;31849;55.992;37.252;2023-03-22T08:41:44;98919.88;;;25.16;16.76
46111;BME280;31849;55.992;37.252;2023-03-22T08:46:49;98919.47;;;24.97;17.30
46111;BME280;31849;55.992;37.252;2023-03-22T08:51:53;98913.69;;;23.02;19.07
46111;BME280;31849;55.992;37.252;2023-03-22T08:56:58;98917.06;;;21.06;20.46
46111;BME280;31849;55.992;37.252;2023-03-22T09:02:05;98922.19;;;19.51;22.66
46111;BME280;31849;55.992;37.252;2023-03-22T09:07:09;98925.66;;;18.14;24.06
46111;BME280;31849;55.992;37.252;2023-03-22T09:12:13;98925.28;;;17.35;25.08
46111;BME280;31849;55.992;37.252;2023-03-22T09:17:18;98927.38;;;15.17;27.21
46111;BME280;31849;55.992;37.252;2023-03-22T09:22:23;98922.81;;;14.30;28.88
46111;BME280;31849;55.992;37.252;2023-03-22T09:27:27;98927.16;;;13.95;29.20
46111;BME280;31849;55.992;37.252;2023-03-22T09:32:32;98926.75;;;14.10;29.70
46111;BME280;31849;55.992;37.252;2023-03-22T09:37:35;98932.63;;;13.46;30.42
46111;BME280;31849;55.992;37.252;2023-03-22T09:42:41;98924.00;;;13.44;31.11
46111;BME280;31849;55.992;37.252;2023-03-22T09:47:50;98939.00;;;12.48;32.44
46111;BME280;31849;55.992;37.252;2023-03-22T09:52:54;98931.81;;;12.60;32.05
46111;BME280;31849;55.992;37.252;2023-03-22T09:58:02;98925.66;;;13.06;31.73
46111;BME280;31849;55.992;37.252;2023-03-22T10:03:18;98928.88;;;12.77;32.18
46111;BME280;31849;55.992;37.252;2023-03-22T10:08:34;98927.09;;;12.79;32.20
46111;BME280;31849;55.992;37.252;2023-03-22T10:13:44;98929.03;;;13.11;32.37
46111;BME280;31849;55.992;37.252;2023-03-22T10:18:58;98921.81;;;12.37;32.94
46111;BME280;31849;55.992;37.252;2023-03-22T10:24:08;98925.66;;;12.64;32.72
46111;BME280;31849;55.992;37.252;2023-03-22T10:29:21;98927.00;;;13.26;32.76
46111;BME280;31849;55.992;37.252;2023-03-22T10:34:28;98914.47;;;13.42;32.43
46111;BME280;31849;55.992;37.252;2023-03-22T10:39:35;98924.75;;;13.87;31.55
46111;BME280;31849;55.992;37.252;2023-03-22T10:44:45;98928.41;;;13.00;31.97
46111;BME280;31849;55.992;37.252;2023-03-22T10:49:53;98919.03;;;12.90;32.15
46111;BME280;31849;55.992;37.252;2023-03-22T10:54:58;98926.56;;;12.61;32.51
46111;BME280;31849;55.992;37.252;2023-03-22T11:00:07;98910.38;;;12.44;32.75
46111;BME280;31849;55.992;37.252;2023-03-22T11:05:22;98930.97;;;12.09;33.26
46111;BME280;31849;55.992;37.252;2023-03-22T11:10:27;98927.75;;;11.93;33.71
46111;BME280;31849;55.992;37.252;2023-03-22T11:15:35;98932.78;;;12.06;33.44
46111;BME280;31849;55.992;37.252;2023-03-22T11:20:50;98927.34;;;12.66;32.51
46111;BME280;31849;55.992;37.252;2023-03-22T11:25:54;98918.41;;;12.31;32.50
46111;BME280;31849;55.992;37.252;2023-03-22T11:31:04;98926.03;;;11.94;32.69
46111;BME280;31849;55.992;37.252;2023-03-22T11:36:17;98929.84;;;11.71;33.91
46111;BME280;31849;55.992;37.252;2023-03-22T11:41:22;98929.63;;;11.24;35.45
46111;BME280;31849;55.992;37.252;2023-03-22T11:46:27;98929.81;;;11.12;35.56
46111;BME280;31849;55.992;37.252;2023-03-22T11:51:34;98928.84;;;11.18;36.02
46111;BME280;31849;55.992;37.252;2023-03-22T11:56:40;98919.47;;;11.04;36.67
46111;BME280;31849;55.992;37.252;2023-03-22T12:01:49;98918.44;;;11.18;36.66
46111;BME280;31849;55.992;37.252;2023-03-22T12:06:58;98916.88;;;11.06;37.26
46111;BME280;31849;55.992;37.252;2023-03-22T12:12:03;98916.25;;;10.87;37.59
46111;BME280;31849;55.992;37.252;2023-03-22T12:17:12;98908.91;;;10.48;38.07
46111;BME280;31849;55.992;37.252;2023-03-22T12:22:21;98917.28;;;10.73;37.63
46111;BME280;31849;55.992;37.252;2023-03-22T12:27:31;98911.25;;;10.68;37.96
46111;BME280;31849;55.992;37.252;2023-03-22T12:32:39;98905.00;;;10.83;37.81
46111;BME280;31849;55.992;37.252;2023-03-22T12:37:47;98906.59;;;10.95;37.58
46111;BME280;31849;55.992;37.252;2023-03-22T12:43:01;98905.19;;;10.71;38.52
46111;BME280;31849;55.992;37.252;2023-03-22T12:48:13;98909.09;;;10.25;39.47
46111;BME280;31849;55.992;37.252;2023-03-22T12:53:21;98907.31;;;10.32;39.41
46111;BME280;31849;55.992;37.252;2023-03-22T12:58:29;98887.72;;;9.98;39.60
46111;BME280;31849;55.992;37.252;2023-03-22T13:03:37;98891.03;;;10.13;39.71
46111;BME280;31849;55.992;37.252;2023-03-22T13:09:09;98899.00;;;9.94;40.31
46111;BME280;31849;55.992;37.252;2023-03-22T13:14:54;98893.16;;;9.67;40.45
46111;BME280;31849;55.992;37.252;2023-03-22T13:20:00;98884.19;;;10.04;39.81
46111;BME280;31849;55.992;37.252;2023-03-22T13:25:30;98885.59;;;10.39;38.93
46111;BME280;31849;55.992;37.252;2023-03-22T13:30:47;98881.91;;;9.68;40.45
46111;BME280;31849;55.992;37.252;2023-03-22T13:35:53;98880.19;;;9.66;39.92
46111;BME280;31849;55.992;37.252;2023-03-22T13:41:06;98876.00;;;9.48;40.71
46111;BME280;31849;55.992;37.252;2023-03-22T13:46:25;98870.59;;;9.76;39.24
46111;BME280;31849;55.992;37.252;2023-03-22T13:51:30;98866.31;;;9.70;37.63
46111;BME280;31849;55.992;37.252;2023-03-22T13:56:49;98855.38;;;9.32;37.36
46111;BME280;31849;55.992;37.252;2023-03-22T14:01:57;98849.47;;;9.09;37.58
46111;BME280;31849;55.992;37.252;2023-03-22T14:07:06;98852.13;;;8.95;37.44
46111;BME280;31849;55.992;37.252;2023-03-22T14:12:18;98855.59;;;8.95;38.23
46111;BME280;31849;55.992;37.252;2023-03-22T14:17:30;98849.44;;;9.13;37.53
46111;BME280;31849;55.992;37.252;2023-03-22T14:22:38;98865.78;;;9.23;37.56
46111;BME280;31849;55.992;37.252;2023-03-22T14:27:45;98853.78;;;9.07;38.10
46111;BME280;31849;55.992;37.252;2023-03-22T14:32:49;98851.41;;;8.76;39.24
46111;BME280;31849;55.992;37.252;2023-03-22T14:37:54;98848.88;;;8.56;39.27
46111;BME280;31849;55.992;37.252;2023-03-22T14:43:11;98854.09;;;8.45;40.63
46111;BME280;31849;55.992;37.252;2023-03-22T14:48:16;98861.00;;;8.54;39.88
46111;BME280;31849;55.992;37.252;2023-03-22T14:53:25;98858.41;;;8.44;39.92
46111;BME280;31849;55.992;37.252;2023-03-22T14:58:33;98860.13;;;8.42;40.02
46111;BME280;31849;55.992;37.252;2023-03-22T15:03:36;98844.66;;;8.25;40.49
46111;BME280;31849;55.992;37.252;2023-03-22T15:08:38;98841.19;;;8.25;40.58
46111;BME280;31849;55.992;37.252;2023-03-22T15:13:43;98842.97;;;8.03;41.65
46111;BME280;31849;55.992;37.252;2023-03-22T15:18:49;98848.16;;;7.97;41.24
46111;BME280;31849;55.992;37.252;2023-03-22T15:23:54;98840.41;;;7.93;41.70
46111;BME280;31849;55.992;37.252;2023-03-22T15:29:00;98849.03;;;7.91;41.48
46111;BME280;31849;55.992;37.252;2023-03-22T15:34:05;98849.91;;;7.68;42.47
46111;BME280;31849;55.992;37.252;2023-03-22T15:39:17;98845.59;;;7.22;44.36
46111;BME280;31849;55.992;37.252;2023-03-22T15:44:26;98854.19;;;7.04;43.17
46111;BME280;31849;55.992;37.252;2023-03-22T15:49:35;98849.81;;;6.77;44.50
46111;BME280;31849;55.992;37.252;2023-03-22T15:54:40;98853.16;;;6.55;44.59
46111;BME280;31849;55.992;37.252;2023-03-22T15:59:51;98861.72;;;6.41;44.89
46111;BME280;31849;55.992;37.252;2023-03-22T16:04:54;98863.38;;;6.28;45.04
46111;BME280;31849;55.992;37.252;2023-03-22T16:09:58;98855.59;;;6.21;44.63
46111;BME280;31849;55.992;37.252;2023-03-22T16:15:02;98858.97;;;6.04;46.21
46111;BME280;31849;55.992;37.252;2023-03-22T16:20:05;98861.47;;;5.98;45.22
46111;BME280;31849;55.992;37.252;2023-03-22T16:25:11;98845.03;;;5.87;46.05
46111;BME280;31849;55.992;37.252;2023-03-22T16:30:18;98863.97;;;5.92;46.30
46111;BME280;31849;55.992;37.252;2023-03-22T16:35:22;98867.34;;;5.80;46.07
46111;BME280;31849;55.992;37.252;2023-03-22T16:40:26;98866.44;;;5.73;46.40
46111;BME280;31849;55.992;37.252;2023-03-22T16:45:32;98868.06;;;5.62;46.64
46111;BME280;31849;55.992;37.252;2023-03-22T16:50:38;98877.53;;;5.61;46.94
46111;BME280;31849;55.992;37.252;2023-03-22T16:55:42;98873.13;;;5.48;46.82
46111;BME280;31849;55.992;37.252;2023-03-22T17:00:47;98878.22;;;5.42;46.53
46111;BME280;31849;55.992;37.252;2023-03-22T17:05:49;98874.66;;;5.29;47.68
46111;BME280;31849;55.992;37.252;2023-03-22T17:10:52;98862.50;;;5.14;47.68
46111;BME280;31849;55.992;37.252;2023-03-22T17:15:55;98880.50;;;5.11;48.15
46111;BME280;31849;55.992;37.252;2023-03-22T17:20:58;98888.94;;;4.96;47.87
46111;BME280;31849;55.992;37.252;2023-03-22T17:26:00;98886.19;;;4.81;48.18
46111;BME280;31849;55.992;37.252;2023-03-22T17:31:05;98884.13;;;4.52;48.83
46111;BME280;31849;55.992;37.252;2023-03-22T17:36:09;98882.28;;;4.42;48.76
46111;BME280;31849;55.992;37.252;2023-03-22T17:41:12;98878.72;;;4.33;49.08
46111;BME280;31849;55.992;37.252;2023-03-22T17:46:17;98871.84;;;4.31;49.44
46111;BME280;31849;55.992;37.252;2023-03-22T17:51:20;98868.41;;;4.30;48.65
46111;BME280;31849;55.992;37.252;2023-03-22T17:56:22;98878.75;;;4.35;48.49
46111;BME280;31849;55.992;37.252;2023-03-22T18:01:26;98869.25;;;4.28;49.50
46111;BME280;31849;55.992;37.252;2023-03-22T18:06:29;98863.94;;;4.17;49.59
46111;BME280;31849;55.992;37.252;2023-03-22T18:11:31;98870.72;;;4.12;49.25
46111;BME280;31849;55.992;37.252;2023-03-22T18:16:35;98870.09;;;4.28;49.30
46111;BME280;31849;55.992;37.252;2023-03-22T18:21:37;98867.72;;;4.45;48.79
46111;BME280;31849;55.992;37.252;2023-03-22T18:26:40;98857.59;;;4.56;48.45
46111;BME280;31849;55.992;37.252;2023-03-22T18:31:43;98855.06;;;4.61;48.56
46111;BME280;31849;55.992;37.252;2023-03-22T18:36:46;98856.59;;;4.48;49.27
46111;BME280;31849;55.992;37.252;2023-03-22T18:41:49;98857.44;;;4.47;48.87
46111;BME280;31849;55.992;37.252;2023-03-22T18:46:52;98850.59;;;4.47;49.12
46111;BME280;31849;55.992;37.252;2023-03-22T18:51:55;98846.81;;;4.19;49.39
46111;BME280;31849;55.992;37.252;2023-03-22T18:56:57;98844.06;;;4.07;49.42
46111;BME280;31849;55.992;37.252;2023-03-22T19:02:01;98828.50;;;3.97;49.33
46111;BME280;31849;55.992;37.252;2023-03-22T19:07:03;98843.81;;;3.88;50.03
46111;BME280;31849;55.992;37.252;2023-03-22T19:12:06;98846.38;;;3.86;49.97
46111;BME280;31849;55.992;37.252;2023-03-22T19:17:10;98847.19;;;3.84;49.92
46111;BME280;31849;55.992;37.252;2023-03-22T19:22:12;98841.13;;;3.79;50.02
46111;BME280;31849;55.992;37.252;2023-03-22T19:27:16;98842.06;;;3.87;49.78
46111;BME280;31849;55.992;37.252;2023-03-22T19:32:19;98841.09;;;3.77;50.07
46111;BME280;31849;55.992;37.252;2023-03-22T19:37:22;98846.53;;;3.99;50.35
46111;BME280;31849;55.992;37.252;2023-03-22T19:42:24;98846.81;;;4.19;49.39
46111;BME280;31849;55.992;37.252;2023-03-22T19:47:28;98851.34;;;4.37;49.03
46111;BME280;31849;55.992;37.252;2023-03-22T19:52:30;98841.06;;;4.38;49.10
46111;BME280;31849;55.992;37.252;2023-03-22T19:57:32;98839.28;;;4.33;49.33
46111;BME280;31849;55.992;37.252;2023-03-22T20:02:36;98834.25;;;4.44;49.50
46111;BME280;31849;55.992;37.252;2023-03-22T20:07:38;98840.38;;;4.52;48.72
46111;BME280;31849;55.992;37.252;2023-03-22T20:12:41;98847.44;;;4.70;48.66
46111;BME280;31849;55.992;37.252;2023-03-22T20:17:44;98849.31;;;4.85;49.08
46111;BME280;31849;55.992;37.252;2023-03-22T20:22:47;98850.19;;;4.88;48.91
46111;BME280;31849;55.992;37.252;2023-03-22T20:27:50;98846.72;;;4.85;48.36
46111;BME280;31849;55.992;37.252;2023-03-22T20:32:54;98833.00;;;4.86;48.89
46111;BME280;31849;55.992;37.252;2023-03-22T20:37:57;98833.81;;;4.82;49.09
46111;BME280;31849;55.992;37.252;2023-03-22T20:42:59;98838.25;;;4.95;49.12
46111;BME280;31849;55.992;37.252;2023-03-22T20:48:04;98835.84;;;5.12;48.98
46111;BME280;31849;55.992;37.252;2023-03-22T20:53:06;98832.47;;;5.21;48.59
46111;BME280;31849;55.992;37.252;2023-03-22T20:58:08;98830.88;;;5.34;47.97
46111;BME280;31849;55.992;37.252;2023-03-22T21:03:12;98820.63;;;5.40;48.32
46111;BME280;31849;55.992;37.252;2023-03-22T21:08:14;98823.22;;;5.46;47.57
46111;BME280;31849;55.992;37.252;2023-03-22T21:13:17;98823.31;;;5.54;47.72
46111;BME280;31849;55.992;37.252;2023-03-22T21:18:20;98821.56;;;5.51;48.45
46111;BME280;31849;55.992;37.252;2023-03-22T21:23:23;98818.19;;;5.57;48.24
46111;BME280;31849;55.992;37.252;2023-03-22T21:28:25;98811.31;;;5.59;48.09
46111;BME280;31849;55.992;37.252;2023-03-22T21:33:31;98808.69;;;5.51;48.09
46111;BME280;31849;55.992;37.252;2023-03-22T21:38:34;98814.72;;;5.58;48.28
46111;BME280;31849;55.992;37.252;2023-03-22T21:43:37;98812.25;;;5.70;48.35
46111;BME280;31849;55.992;37.252;2023-03-22T21:48:42;98812.28;;;5.76;48.17
46111;BME280;31849;55.992;37.252;2023-03-22T21:53:45;98807.09;;;5.67;48.09
46111;BME280;31849;55.992;37.252;2023-03-22T21:58:47;98813.91;;;5.63;48.63
46111;BME280;31849;55.992;37.252;2023-03-22T22:03:51;98806.19;;;5.65;48.19
46111;BME280;31849;55.992;37.252;2023-03-22T22:08:54;98807.84;;;5.54;48.78
46111;BME280;31849;55.992;37.252;2023-03-22T22:13:57;98814.72;;;5.55;48.73
46111;BME280;31849;55.992;37.252;2023-03-22T22:19:01;98815.66;;;5.64;48.96
46111;BME280;31849;55.992;37.252;2023-03-22T22:24:04;98816.47;;;5.59;48.52
46111;BME280;31849;55.992;37.252;2023-03-22T22:29:06;98820.78;;;5.60;48.60
46111;BME280;31849;55.992;37.252;2023-03-22T22:34:10;98821.69;;;5.68;48.94
46111;BME280;31849;55.992;37.252;2023-03-22T22:39:13;98826.84;;;5.68;49.67
46111;BME280;31849;55.992;37.252;2023-03-22T22:44:17;98828.66;;;5.83;48.31
46111;BME280;31849;55.992;37.252;2023-03-22T22:49:22;98821.81;;;5.84;48.56
46111;BME280;31849;55.992;37.252;2023-03-22T22:54:24;98826.94;;;5.80;48.44
46111;BME280;31849;55.992;37.252;2023-03-22T22:59:27;98832.13;;;5.84;48.50
46111;BME280;31849;55.992;37.252;2023-03-22T23:04:30;98825.25;;;5.84;48.50
46111;BME280;31849;55.992;37.252;2023-03-22T23:09:32;98830.47;;;5.95;47.86
46111;BME280;31849;55.992;37.252;2023-03-22T23:14:37;98833.97;;;5.97;48.20
46111;BME280;31849;55.992;37.252;2023-03-22T23:19:42;98832.31;;;6.16;48.16
46111;BME280;31849;55.992;37.252;2023-03-22T23:24:58;98834.91;;;6.16;47.79
46111;BME280;31849;55.992;37.252;2023-03-22T23:30:03;98835.81;;;6.24;48.39
46111;BME280;31849;55.992;37.252;2023-03-22T23:35:08;98825.50;;;6.29;47.96
46111;BME280;31849;55.992;37.252;2023-03-22T23:40:12;98823.81;;;6.32;47.09
46111;BME280;31849;55.992;37.252;2023-03-22T23:45:15;98829.81;;;6.28;47.74
46111;BME280;31849;55.992;37.252;2023-03-22T23:50:19;98825.50;;;6.26;47.57
46111;BME280;31849;55.992;37.252;2023-03-22T23:55:22;98817.75;;;6.27;47.57
